Time;durP1;ratioP1;P1;durP2;ratioP2;P2;SDS_P1;SDS_P2;PMS_P1;PMS_P2;Temp;Humidity;BMP_temperature;BMP_pressure;BME280_temperature;BME280_humidity;BME280_pressure;Samples;Min_cycle;Max_cycle;Signal;HPM_P1;HPM_P2
2024/04/15 00:01:26;;;;;;;;;;;;;;;9.96;39.87;95380.34;5388640;26;19935;-74
2024/04/15 00:03:52;;;;;;;;;;;;;;;9.94;40.56;95380.56;5393892;26;19932;-72
2024/04/15 00:06:17;;;;;;;;;;;;;;;9.99;40.92;95380.00;5394881;26;19933;-72
2024/04/15 00:08:42;;;;;;;;;;;;;;;9.99;41.20;95385.31;5395597;26;19941;-73
2024/04/15 00:11:07;;;;;;;;;;;;;;;10.13;40.72;95374.94;5390411;26;19929;-72
2024/04/15 00:13:33;;;;;;;;;;;;;;;10.10;41.66;95368.94;5392423;26;20487;-74
2024/04/15 00:15:58;;;;;;;;;;;;;;;10.20;41.11;95367.88;5390115;26;19958;-73
2024/04/15 00:18:23;;;;;;;;;;;;;;;10.31;40.98;95366.59;5388973;26;19936;-73
2024/04/15 00:20:55;;;;;;;;;;;;;;;10.41;40.74;95369.81;5394391;26;20340;-72
2024/04/15 00:23:21;;;;;;;;;;;;;;;10.30;41.14;95372.94;5393025;26;20031;-73
2024/04/15 00:25:46;;;;;;;;;;;;;;;10.25;40.57;95368.16;5393760;26;20382;-72
2024/04/15 00:28:11;;;;;;;;;;;;;;;10.20;40.13;95362.56;5394765;26;20423;-74
2024/04/15 00:30:36;;;;;;;;;;;;;;;10.17;40.21;95361.06;5386174;26;20293;-73
2024/04/15 00:33:02;;;;;;;;;;;;;;;10.32;40.00;95360.25;5387186;26;19936;-73
2024/04/15 00:35:27;;;;;;;;;;;;;;;10.29;39.57;95358.78;5395405;26;19953;-74
2024/04/15 00:37:54;;;;;;;;;;;;;;;10.16;39.98;95348.78;5386640;26;19929;-73
2024/04/15 00:40:19;;;;;;;;;;;;;;;10.16;39.44;95351.44;5395367;26;20029;-74
2024/04/15 00:42:44;;;;;;;;;;;;;;;10.08;39.68;95344.38;5394689;26;19941;-75
2024/04/15 00:45:31;;;;;;;;;;;;;;;9.80;40.66;95331.63;5392683;26;19929;-74
2024/04/15 00:47:57;;;;;;;;;;;;;;;9.23;43.37;95323.13;5394591;26;19937;-77
2024/04/15 00:50:22;;;;;;;;;;;;;;;9.33;42.87;95334.34;5394093;26;20003;-77
2024/04/15 00:52:48;;;;;;;;;;;;;;;9.00;43.04;95345.16;5392039;26;19972;-74
2024/04/15 00:55:13;;;;;;;;;;;;;;;8.45;45.81;95331.78;5392678;26;19945;-74
2024/04/15 00:57:40;;;;;;;;;;;;;;;8.08;46.37;95325.25;5391912;26;20359;-78
2024/04/15 01:00:06;;;;;;;;;;;;;;;8.33;47.90;95320.72;5392490;26;19945;-76
2024/04/15 01:02:31;;;;;;;;;;;;;;;8.15;47.12;95331.53;5391405;26;19929;-74
2024/04/15 01:04:57;;;;;;;;;;;;;;;7.44;48.67;95324.97;5394159;26;20014;-74
2024/04/15 01:07:22;;;;;;;;;;;;;;;7.51;49.67;95304.78;5379701;26;19937;-76
2024/04/15 01:09:47;;;;;;;;;;;;;;;6.12;53.75;95302.44;5389844;26;19966;-75
2024/04/15 01:12:12;;;;;;;;;;;;;;;7.05;51.40;95307.06;5392399;26;19929;-76
2024/04/15 01:14:38;;;;;;;;;;;;;;;7.05;52.00;95310.56;5392917;26;20274;-76
2024/04/15 01:17:03;;;;;;;;;;;;;;;7.20;53.21;95316.03;5387194;26;20333;-74
2024/04/15 01:19:28;;;;;;;;;;;;;;;7.00;52.92;95312.84;5393874;26;20335;-75
2024/04/15 01:21:53;;;;;;;;;;;;;;;6.67;54.05;95297.75;5394533;26;19966;-74
2024/04/15 01:24:19;;;;;;;;;;;;;;;6.93;55.01;95296.78;5393717;26;20001;-75
2024/04/15 01:26:45;;;;;;;;;;;;;;;6.47;54.83;95300.59;5395275;26;19940;-75
2024/04/15 01:29:10;;;;;;;;;;;;;;;6.41;55.16;95303.06;5385369;26;19948;-75
2024/04/15 01:31:35;;;;;;;;;;;;;;;6.03;55.51;95300.75;5393883;26;20005;-76
2024/04/15 01:34:00;;;;;;;;;;;;;;;5.89;55.92;95300.34;5387449;26;19932;-77
2024/04/15 01:36:26;;;;;;;;;;;;;;;5.48;56.73;95293.00;5389412;26;20380;-76
2024/04/15 01:38:51;;;;;;;;;;;;;;;5.50;57.51;95291.00;5394081;26;19984;-76
2024/04/15 01:41:16;;;;;;;;;;;;;;;5.36;57.81;95284.47;5391480;26;20215;-75
2024/04/15 01:43:41;;;;;;;;;;;;;;;5.21;57.49;95282.38;5393922;26;19929;-76
2024/04/15 01:46:06;;;;;;;;;;;;;;;5.05;59.60;95287.47;5393967;26;20414;-75
2024/04/15 01:48:32;;;;;;;;;;;;;;;4.96;58.98;95287.41;5392907;26;19929;-74
2024/04/15 01:50:58;;;;;;;;;;;;;;;4.68;60.28;95290.13;5392631;26;19988;-75
2024/04/15 01:53:24;;;;;;;;;;;;;;;4.63;60.33;95289.72;5391464;26;20175;-75
2024/04/15 01:55:49;;;;;;;;;;;;;;;4.61;60.97;95289.03;5395342;26;19940;-75
2024/04/15 01:58:14;;;;;;;;;;;;;;;4.63;60.90;95268.63;5390950;26;19929;-77
2024/04/15 02:00:39;;;;;;;;;;;;;;;4.79;60.36;95282.94;5393664;26;19998;-73
2024/04/15 02:03:05;;;;;;;;;;;;;;;4.99;59.99;95277.56;5392854;26;20696;-75
2024/04/15 02:05:30;;;;;;;;;;;;;;;5.27;59.20;95272.19;5393266;26;20304;-78
2024/04/15 02:07:56;;;;;;;;;;;;;;;5.64;57.91;95276.41;5393572;26;19928;-76
2024/04/15 02:10:21;;;;;;;;;;;;;;;5.73;58.07;95272.84;5391811;26;19957;-76
2024/04/15 02:12:47;;;;;;;;;;;;;;;5.89;57.51;95263.38;5393020;26;19929;-75
2024/04/15 02:15:12;;;;;;;;;;;;;;;5.57;57.72;95270.09;5393298;26;19929;-74
2024/04/15 02:17:37;;;;;;;;;;;;;;;5.78;57.59;95258.34;5387595;26;19940;-77
2024/04/15 02:20:02;;;;;;;;;;;;;;;6.34;54.99;95255.28;5393762;26;19937;-78
2024/04/15 02:22:28;;;;;;;;;;;;;;;6.20;55.27;95252.28;5392604;26;19929;-75
2024/04/15 02:24:53;;;;;;;;;;;;;;;6.36;55.18;95248.03;5392734;26;20315;-74
2024/04/15 02:27:18;;;;;;;;;;;;;;;6.71;53.95;95246.16;5382107;26;20333;-77
2024/04/15 02:29:43;;;;;;;;;;;;;;;6.79;53.85;95240.03;5383487;26;19929;-76
2024/04/15 02:32:09;;;;;;;;;;;;;;;6.96;52.94;95232.09;5392936;26;19936;-75
2024/04/15 02:34:34;;;;;;;;;;;;;;;7.10;53.16;95225.31;5386002;26;20430;-75
2024/04/15 02:36:59;;;;;;;;;;;;;;;7.26;52.98;95221.84;5391344;26;19939;-75
2024/04/15 02:39:25;;;;;;;;;;;;;;;7.41;52.33;95225.47;5393229;26;19986;-74
2024/04/15 02:41:50;;;;;;;;;;;;;;;7.54;51.92;95218.84;5386971;26;20391;-77
2024/04/15 02:44:16;;;;;;;;;;;;;;;7.53;51.51;95206.59;5389445;26;20316;-74
2024/04/15 02:46:41;;;;;;;;;;;;;;;7.65;50.76;95210.53;5392522;26;19929;-75
2024/04/15 02:49:06;;;;;;;;;;;;;;;7.74;51.59;95198.09;5392502;26;19940;-76
2024/04/15 02:51:34;;;;;;;;;;;;;;;7.68;51.25;95196.13;5392423;26;20005;-76
2024/04/15 02:53:59;;;;;;;;;;;;;;;7.59;51.65;95205.09;5389807;26;20453;-75
2024/04/15 02:56:24;;;;;;;;;;;;;;;7.61;51.78;95198.63;5391697;26;19945;-77
2024/04/15 02:58:50;;;;;;;;;;;;;;;7.81;51.07;95200.06;5389541;26;20284;-74
2024/04/15 03:01:15;;;;;;;;;;;;;;;7.88;50.79;95199.25;5378078;26;20305;-73
2024/04/15 03:03:40;;;;;;;;;;;;;;;8.01;50.53;95198.69;5387104;26;20050;-73
2024/04/15 03:06:05;;;;;;;;;;;;;;;8.14;50.12;95192.00;5393120;26;20006;-73
2024/04/15 03:08:31;;;;;;;;;;;;;;;8.07;50.04;95193.69;5387326;26;19933;-74
2024/04/15 03:10:56;;;;;;;;;;;;;;;7.80;50.46;95196.63;5392928;26;19929;-74
2024/04/15 03:13:21;;;;;;;;;;;;;;;7.84;50.55;95189.97;5388642;26;19961;-74
2024/04/15 03:15:53;;;;;;;;;;;;;;;7.63;50.66;95186.06;5392984;26;19984;-74
2024/04/15 03:18:18;;;;;;;;;;;;;;;7.62;50.66;95194.97;5388718;26;20417;-72
2024/04/15 03:20:43;;;;;;;;;;;;;;;7.43;51.67;95184.75;5391898;26;19941;-74
2024/04/15 03:23:09;;;;;;;;;;;;;;;7.41;52.03;95192.88;5391772;26;19984;-73
2024/04/15 03:25:35;;;;;;;;;;;;;;;7.43;52.03;95188.25;5387922;26;19998;-73
2024/04/15 03:28:00;;;;;;;;;;;;;;;7.58;51.98;95187.56;5390458;26;20003;-74
2024/04/15 03:30:25;;;;;;;;;;;;;;;7.22;52.31;95189.59;5364122;26;19934;-74
2024/04/15 03:32:50;;;;;;;;;;;;;;;7.09;53.32;95183.97;5368128;26;20728;-74
2024/04/15 03:35:16;;;;;;;;;;;;;;;6.44;55.29;95181.94;5392038;26;20113;-75
2024/04/15 03:37:41;;;;;;;;;;;;;;;6.43;55.36;95188.19;5368878;26;20228;-73
2024/04/15 03:40:07;;;;;;;;;;;;;;;6.18;56.48;95182.84;5362475;26;20745;-73
2024/04/15 03:42:32;;;;;;;;;;;;;;;5.99;56.97;95182.13;5390234;26;20219;-75
2024/04/15 03:44:57;;;;;;;;;;;;;;;5.82;57.33;95181.25;5395288;26;19929;-75
2024/04/15 03:47:23;;;;;;;;;;;;;;;5.10;59.56;95174.41;5394681;26;19948;-75
2024/04/15 03:49:48;;;;;;;;;;;;;;;5.63;58.03;95169.13;5395164;26;20246;-73
2024/04/15 03:52:13;;;;;;;;;;;;;;;4.95;59.91;95177.59;5390285;26;19929;-73
2024/04/15 03:54:38;;;;;;;;;;;;;;;5.06;59.78;95167.78;5393994;26;20284;-75
2024/04/15 03:57:04;;;;;;;;;;;;;;;4.75;60.81;95174.28;5387877;26;20456;-73
2024/04/15 03:59:29;;;;;;;;;;;;;;;4.94;60.25;95175.91;5389735;26;19937;-75
2024/04/15 04:01:55;;;;;;;;;;;;;;;4.93;60.30;95173.47;5386622;26;19969;-72
2024/04/15 04:04:20;;;;;;;;;;;;;;;4.36;61.74;95171.97;5392779;26;19948;-72
2024/04/15 04:06:45;;;;;;;;;;;;;;;4.31;61.84;95157.44;5395434;26;20553;-71
2024/04/15 04:09:10;;;;;;;;;;;;;;;4.27;62.15;95160.50;5385131;26;19928;-73
2024/04/15 04:11:36;;;;;;;;;;;;;;;3.91;63.27;95163.94;5391624;26;19929;-76
2024/04/15 04:14:01;;;;;;;;;;;;;;;4.02;63.42;95142.63;5393024;26;19997;-76
2024/04/15 04:16:26;;;;;;;;;;;;;;;3.91;64.04;95148.94;5384706;26;20313;-77
2024/04/15 04:18:51;;;;;;;;;;;;;;;3.46;65.33;95149.72;5388902;26;20347;-74
2024/04/15 04:21:17;;;;;;;;;;;;;;;3.86;63.90;95148.56;5395170;26;19997;-75
2024/04/15 04:23:42;;;;;;;;;;;;;;;4.23;62.91;95143.34;5393113;26;20374;-77
2024/04/15 04:26:07;;;;;;;;;;;;;;;4.30;62.91;95141.75;5387193;26;20266;-75
2024/04/15 04:28:33;;;;;;;;;;;;;;;4.30;62.19;95145.25;5391222;26;20253;-73
2024/04/15 04:31:02;;;;;;;;;;;;;;;4.03;63.54;95146.09;5388965;26;20385;-73
2024/04/15 04:33:28;;;;;;;;;;;;;;;4.10;63.14;95141.06;5387609;26;20403;-74
2024/04/15 04:35:53;;;;;;;;;;;;;;;4.14;62.88;95140.63;5395619;26;19929;-77
2024/04/15 04:38:18;;;;;;;;;;;;;;;4.36;61.57;95135.06;5395211;26;19971;-74
2024/04/15 04:40:44;;;;;;;;;;;;;;;4.33;61.08;95129.09;5394458;26;19941;-74
2024/04/15 04:43:09;;;;;;;;;;;;;;;4.37;60.95;95132.28;5395536;26;19944;-75
2024/04/15 04:45:34;;;;;;;;;;;;;;;4.40;60.42;95125.88;5394373;26;20288;-74
2024/04/15 04:47:59;;;;;;;;;;;;;;;4.44;60.26;95132.50;5388651;26;19936;-75
2024/04/15 04:50:25;;;;;;;;;;;;;;;4.41;60.32;95128.38;5390613;26;19947;-76
2024/04/15 04:52:50;;;;;;;;;;;;;;;3.81;62.20;95132.34;5394095;26;19944;-76
2024/04/15 04:55:15;;;;;;;;;;;;;;;3.66;62.98;95132.88;5394291;26;20481;-76
2024/04/15 04:57:40;;;;;;;;;;;;;;;4.00;61.64;95123.53;5389670;26;19932;-74
2024/04/15 05:00:06;;;;;;;;;;;;;;;4.10;61.10;95131.38;5389575;26;20005;-74
2024/04/15 05:02:31;;;;;;;;;;;;;;;4.39;60.41;95129.50;5394430;26;20302;-75
2024/04/15 05:04:57;;;;;;;;;;;;;;;4.56;59.20;95119.94;5391919;26;19933;-75
2024/04/15 05:07:22;;;;;;;;;;;;;;;4.48;59.35;95119.84;5395323;26;19929;-77
2024/04/15 05:09:47;;;;;;;;;;;;;;;3.97;60.13;95121.19;5394283;26;19982;-75
2024/04/15 05:12:13;;;;;;;;;;;;;;;4.03;60.96;95110.06;5394763;26;20359;-77
2024/04/15 05:14:38;;;;;;;;;;;;;;;3.90;62.18;95115.69;5394144;26;19936;-75
2024/04/15 05:17:04;;;;;;;;;;;;;;;4.08;61.48;95112.22;5385645;26;19929;-75
2024/04/15 05:19:29;;;;;;;;;;;;;;;4.14;61.41;95110.81;5359522;26;20453;-75
2024/04/15 05:21:54;;;;;;;;;;;;;;;4.76;59.88;95109.19;5391300;26;19929;-72
2024/04/15 05:24:20;;;;;;;;;;;;;;;4.76;59.24;95110.00;5393487;26;20277;-73
2024/04/15 05:26:45;;;;;;;;;;;;;;;5.18;57.84;95110.31;5387993;26;19929;-71
2024/04/15 05:29:10;;;;;;;;;;;;;;;5.21;57.90;95099.44;5384194;26;19941;-74
2024/04/15 05:31:35;;;;;;;;;;;;;;;5.13;57.81;95096.75;5392935;26;19936;-74
2024/04/15 05:34:01;;;;;;;;;;;;;;;4.89;58.03;95099.06;5385234;26;20013;-74
2024/04/15 05:36:26;;;;;;;;;;;;;;;4.49;59.95;95098.59;5393259;26;19936;-71
2024/04/15 05:38:51;;;;;;;;;;;;;;;4.58;60.45;95091.59;5387866;26;20653;-74
2024/04/15 05:41:16;;;;;;;;;;;;;;;4.36;60.76;95098.16;5392984;26;19948;-74
2024/04/15 05:43:42;;;;;;;;;;;;;;;4.37;60.48;95092.75;5392762;26;19936;-73
2024/04/15 05:46:07;;;;;;;;;;;;;;;4.30;60.67;95094.31;5388113;26;19940;-73
2024/04/15 05:48:32;;;;;;;;;;;;;;;3.98;62.17;95101.75;5379735;26;19948;-75
2024/04/15 05:50:58;;;;;;;;;;;;;;;3.95;62.62;95088.91;5389151;26;20374;-72
2024/04/15 05:53:23;;;;;;;;;;;;;;;3.65;63.58;95090.88;5383945;26;19929;-71
2024/04/15 05:55:48;;;;;;;;;;;;;;;3.58;64.22;95085.41;5392227;26;19929;-73
2024/04/15 05:58:13;;;;;;;;;;;;;;;3.42;64.92;95071.03;5386465;26;19937;-75
2024/04/15 06:00:38;;;;;;;;;;;;;;;3.01;66.14;95084.50;5381059;26;19929;-73
2024/04/15 06:03:04;;;;;;;;;;;;;;;3.46;64.66;95070.75;5385352;26;20649;-73
2024/04/15 06:05:29;;;;;;;;;;;;;;;3.23;65.04;95065.88;5388256;26;19933;-75
2024/04/15 06:07:54;;;;;;;;;;;;;;;3.02;65.96;95066.91;5392793;26;19928;-73
2024/04/15 06:10:20;;;;;;;;;;;;;;;2.09;66.65;95074.41;5384703;26;20328;-75
2024/04/15 06:12:45;;;;;;;;;;;;;;;2.07;67.35;95065.00;5393024;26;19986;-72
2024/04/15 06:15:10;;;;;;;;;;;;;;;2.33;66.81;95062.66;5391214;26;20447;-73
2024/04/15 06:17:35;;;;;;;;;;;;;;;2.39;66.97;95058.63;5383716;26;19929;-74
2024/04/15 06:20:01;;;;;;;;;;;;;;;2.62;65.67;95069.66;5390843;26;19937;-74
2024/04/15 06:22:26;;;;;;;;;;;;;;;2.09;66.11;95061.28;5390743;26;19929;-73
2024/04/15 06:24:51;;;;;;;;;;;;;;;2.01;66.24;95066.41;5389769;26;20365;-73
2024/04/15 06:27:18;;;;;;;;;;;;;;;2.35;65.56;95058.06;5384977;26;19941;-73
2024/04/15 06:29:43;;;;;;;;;;;;;;;1.75;65.66;95069.53;5391931;26;20248;-73
2024/04/15 06:32:08;;;;;;;;;;;;;;;2.17;64.72;95059.75;5382610;26;19998;-73
2024/04/15 06:34:34;;;;;;;;;;;;;;;1.41;66.36;95054.97;5382819;26;19929;-72
2024/04/15 06:36:59;;;;;;;;;;;;;;;2.03;65.47;95056.56;5391157;26;19941;-74
2024/04/15 06:39:24;;;;;;;;;;;;;;;2.26;65.14;95044.00;5392093;26;19937;-73
2024/04/15 06:41:49;;;;;;;;;;;;;;;2.14;64.63;95048.56;5385930;26;20336;-74
2024/04/15 06:44:15;;;;;;;;;;;;;;;2.25;65.36;95044.13;5383980;26;19929;-73
2024/04/15 06:46:41;;;;;;;;;;;;;;;2.38;63.76;95043.81;5389133;26;19995;-74
2024/04/15 06:49:06;;;;;;;;;;;;;;;2.04;64.52;95039.84;5391312;26;20290;-73
2024/04/15 06:51:32;;;;;;;;;;;;;;;2.16;62.24;95037.06;5385931;26;19985;-72
2024/04/15 06:53:58;;;;;;;;;;;;;;;2.32;60.51;95042.59;5385612;26;20447;-73
2024/04/15 06:56:24;;;;;;;;;;;;;;;2.18;61.20;95037.78;5386317;26;19929;-75
2024/04/15 06:58:49;;;;;;;;;;;;;;;2.29;60.39;95037.63;5385301;26;20152;-71
2024/04/15 07:01:14;;;;;;;;;;;;;;;2.85;58.57;95005.38;5386358;26;20225;-74
2024/04/15 07:03:39;;;;;;;;;;;;;;;2.37;58.94;95015.91;5378354;26;20303;-74
2024/04/15 07:06:05;;;;;;;;;;;;;;;3.06;57.65;95004.34;5392130;26;19933;-73
2024/04/15 07:08:30;;;;;;;;;;;;;;;2.69;56.17;95003.38;5388980;26;19952;-73
2024/04/15 07:10:55;;;;;;;;;;;;;;;3.29;56.44;94987.16;5391876;26;19933;-74
2024/04/15 07:13:21;;;;;;;;;;;;;;;2.41;54.89;94987.56;5382205;26;19929;-74
2024/04/15 07:15:46;;;;;;;;;;;;;;;2.62;56.85;94987.34;5387719;26;19933;-74
2024/04/15 07:18:12;;;;;;;;;;;;;;;2.94;56.78;94966.88;5385318;26;19948;-74
2024/04/15 07:20:37;;;;;;;;;;;;;;;3.19;54.74;94967.16;5395366;26;19948;-74
2024/04/15 07:23:03;;;;;;;;;;;;;;;3.53;48.14;94971.81;5394161;26;20323;-74
2024/04/15 07:25:28;;;;;;;;;;;;;;;3.87;50.26;94957.13;5381543;26;19948;-73
2024/04/15 07:27:53;;;;;;;;;;;;;;;3.90;51.17;94965.56;5392936;26;20225;-73
2024/04/15 07:30:19;;;;;;;;;;;;;;;3.42;48.69;94963.13;5391025;26;19933;-74
2024/04/15 07:32:45;;;;;;;;;;;;;;;3.93;47.22;94967.91;5384869;26;19944;-72
2024/04/15 07:35:10;;;;;;;;;;;;;;;3.70;47.14;94971.97;5382778;26;20223;-74
2024/04/15 07:37:36;;;;;;;;;;;;;;;3.14;46.95;94976.31;5363479;26;19962;-74
2024/04/15 07:40:01;;;;;;;;;;;;;;;3.26;47.67;94970.84;5389326;26;19937;-74
2024/04/15 07:42:26;;;;;;;;;;;;;;;3.27;45.81;94967.25;5376897;26;19940;-75
2024/04/15 07:44:51;;;;;;;;;;;;;;;3.01;47.10;94965.31;5392424;26;19998;-75
2024/04/15 07:47:19;;;;;;;;;;;;;;;2.82;48.95;94966.25;5391151;26;19941;-74
2024/04/15 07:49:44;;;;;;;;;;;;;;;3.11;47.13;94958.22;5379475;26;19998;-74
2024/04/15 07:52:10;;;;;;;;;;;;;;;3.32;49.06;94957.09;5387957;26;19977;-77
2024/04/15 07:54:35;;;;;;;;;;;;;;;3.01;49.04;94958.25;5380999;26;20583;-75
2024/04/15 07:57:01;;;;;;;;;;;;;;;3.00;49.22;94963.66;5385941;26;19937;-69
2024/04/15 07:59:27;;;;;;;;;;;;;;;2.93;50.50;94963.44;5391977;26;19936;-73
2024/04/15 08:01:52;;;;;;;;;;;;;;;3.46;49.11;94954.94;5394280;26;20265;-74
2024/04/15 08:04:17;;;;;;;;;;;;;;;3.88;50.45;94943.00;5359508;26;19933;-76
2024/04/15 08:06:42;;;;;;;;;;;;;;;3.70;46.98;94951.72;5394788;26;20215;-75
2024/04/15 08:09:08;;;;;;;;;;;;;;;3.81;47.26;94963.81;5392729;26;20385;-75
2024/04/15 08:11:33;;;;;;;;;;;;;;;3.88;47.15;94962.25;5395395;26;19929;-75
2024/04/15 08:13:58;;;;;;;;;;;;;;;3.99;47.09;94960.34;5390076;26;19992;-74
2024/04/15 08:16:24;;;;;;;;;;;;;;;4.15;47.10;94960.47;5377800;26;19930;-74
2024/04/15 08:18:49;;;;;;;;;;;;;;;3.81;46.50;94948.03;5385556;26;19936;-74
2024/04/15 08:21:14;;;;;;;;;;;;;;;4.21;46.18;94955.59;5391539;26;19936;-74
2024/04/15 08:23:39;;;;;;;;;;;;;;;2.67;44.43;94960.63;5392799;26;19933;-75
2024/04/15 08:26:06;;;;;;;;;;;;;;;2.14;45.27;94955.78;5389405;26;20405;-75
2024/04/15 08:28:31;;;;;;;;;;;;;;;2.26;46.58;94944.16;5388176;26;19940;-75
2024/04/15 08:30:57;;;;;;;;;;;;;;;2.16;46.75;94955.66;5394972;26;19936;-75
2024/04/15 08:33:22;;;;;;;;;;;;;;;1.75;48.18;94940.94;5385519;26;20161;-74
2024/04/15 08:35:47;;;;;;;;;;;;;;;2.42;49.91;94926.16;5392286;26;20457;-76
2024/04/15 08:38:12;;;;;;;;;;;;;;;2.72;48.74;94927.66;5389450;26;19937;-74
2024/04/15 08:40:38;;;;;;;;;;;;;;;3.64;45.06;94911.03;5393175;26;19936;-74
2024/04/15 08:43:03;;;;;;;;;;;;;;;4.28;43.83;94917.91;5394468;26;19940;-74
2024/04/15 08:45:29;;;;;;;;;;;;;;;4.65;44.81;94913.31;5386398;26;19997;-76
2024/04/15 08:47:56;;;;;;;;;;;;;;;4.73;42.68;94903.78;5394836;26;19978;-77
2024/04/15 08:50:21;;;;;;;;;;;;;;;4.18;43.46;94910.09;5391763;26;20541;-74
2024/04/15 08:52:56;;;;;;;;;;;;;;;4.45;45.39;94907.44;5381958;26;19933;-76
2024/04/15 08:55:21;;;;;;;;;;;;;;;4.12;43.02;94913.34;5387835;26;20025;-76
2024/04/15 08:57:47;;;;;;;;;;;;;;;4.36;43.74;94903.97;5394565;26;19944;-75
2024/04/15 09:00:12;;;;;;;;;;;;;;;4.01;44.83;94895.19;5390458;26;19929;-75
2024/04/15 09:02:37;;;;;;;;;;;;;;;4.72;43.74;94897.69;5392311;26;19944;-75
2024/04/15 09:05:03;;;;;;;;;;;;;;;4.96;43.31;94898.75;5385487;26;19929;-74
2024/04/15 09:07:28;;;;;;;;;;;;;;;5.55;42.02;94894.44;5393213;26;19944;-75
2024/04/15 09:09:53;;;;;;;;;;;;;;;5.82;41.93;94864.22;5393216;26;20387;-76
2024/04/15 09:12:18;;;;;;;;;;;;;;;5.85;41.77;94863.09;5393539;26;20031;-73
2024/04/15 09:14:44;;;;;;;;;;;;;;;5.87;40.12;94863.72;5390757;26;19998;-76
2024/04/15 09:17:14;;;;;;;;;;;;;;;6.89;39.85;94837.66;5389279;26;19964;-74
2024/04/15 09:19:40;;;;;;;;;;;;;;;6.65;39.27;94844.72;5380541;26;20383;-77
2024/04/15 09:22:05;;;;;;;;;;;;;;;6.89;39.76;94830.56;5421113;26;19936;-73
2024/04/15 09:24:30;;;;;;;;;;;;;;;6.00;38.60;94863.22;5355837;26;19929;-75
2024/04/15 09:26:56;;;;;;;;;;;;;;;6.86;38.60;94822.13;5379940;26;19937;-75
2024/04/15 09:29:21;;;;;;;;;;;;;;;6.61;36.29;94824.91;5392206;26;19937;-76
2024/04/15 09:31:47;;;;;;;;;;;;;;;7.13;36.07;94830.56;5401134;26;20316;-76
2024/04/15 09:34:12;;;;;;;;;;;;;;;6.56;35.95;94824.59;5358640;26;20579;-75
2024/04/15 09:36:41;;;;;;;;;;;;;;;7.32;36.51;94809.91;5381556;26;19930;-75
2024/04/15 09:39:07;;;;;;;;;;;;;;;7.44;37.79;94811.16;5384494;26;19936;-74
2024/04/15 09:41:32;;;;;;;;;;;;;;;6.88;37.16;94806.91;5355418;26;20368;-76
2024/04/15 09:43:57;;;;;;;;;;;;;;;5.85;39.22;94807.63;5389089;26;19933;-75
2024/04/15 09:46:23;;;;;;;;;;;;;;;8.02;35.96;94786.78;5386109;26;20312;-78
2024/04/15 09:48:48;;;;;;;;;;;;;;;6.40;38.58;94767.28;5392690;26;19964;-76
2024/04/15 09:51:17;;;;;;;;;;;;;;;6.95;35.48;94765.53;5380363;26;19928;-77
2024/04/15 09:53:43;;;;;;;;;;;;;;;7.46;36.21;94772.06;5391693;26;20221;-75
2024/04/15 09:56:23;;;;;;;;;;;;;;;7.94;34.50;94756.91;5388504;26;19935;-75
2024/04/15 09:58:48;;;;;;;;;;;;;;;7.80;35.30;94759.38;5393902;26;19929;-75
2024/04/15 10:01:16;;;;;;;;;;;;;;;7.23;35.21;94774.72;5388768;26;20594;-74
2024/04/15 10:03:41;;;;;;;;;;;;;;;8.56;33.84;94745.03;5393108;26;20203;-74
2024/04/15 10:06:07;;;;;;;;;;;;;;;8.58;33.08;94747.53;5382134;26;19929;-75
2024/04/15 10:08:32;;;;;;;;;;;;;;;7.94;35.33;94747.13;5392363;26;20001;-73
2024/04/15 10:10:57;;;;;;;;;;;;;;;7.95;34.34;94727.56;5384383;26;19929;-73
2024/04/15 10:13:23;;;;;;;;;;;;;;;8.46;33.42;94720.63;5390961;26;19941;-74
2024/04/15 10:15:53;;;;;;;;;;;;;;;8.87;32.95;94719.22;5354162;26;19935;-73
2024/04/15 10:18:18;;;;;;;;;;;;;;;8.09;33.36;94723.25;5386987;26;19929;-75
2024/04/15 10:20:45;;;;;;;;;;;;;;;7.48;36.05;94726.88;5391019;26;19944;-75
2024/04/15 10:23:14;;;;;;;;;;;;;;;8.30;32.98;94698.63;5388969;26;19935;-74
2024/04/15 10:25:39;;;;;;;;;;;;;;;8.67;33.77;94705.78;5383493;26;19949;-74
2024/04/15 10:28:05;;;;;;;;;;;;;;;8.60;34.23;94723.44;5391823;26;19933;-73
2024/04/15 10:30:31;;;;;;;;;;;;;;;8.64;32.47;94693.69;5384985;26;19940;-74
2024/04/15 10:33:00;;;;;;;;;;;;;;;8.40;31.83;94700.19;5387237;26;20319;-72
2024/04/15 10:35:25;;;;;;;;;;;;;;;7.53;33.05;94692.72;5382483;26;19941;-74
2024/04/15 10:37:57;;;;;;;;;;;;;;;8.21;32.33;94688.31;5391031;26;19955;-74
2024/04/15 10:40:29;;;;;;;;;;;;;;;7.97;31.54;94682.31;5387939;26;19928;-73
2024/04/15 10:42:55;;;;;;;;;;;;;;;7.52;32.23;94670.69;5393165;26;19951;-73
2024/04/15 10:45:20;;;;;;;;;;;;;;;7.21;33.47;94670.84;5390169;26;20358;-73
2024/04/15 10:47:48;;;;;;;;;;;;;;;6.99;34.49;94665.41;5389676;26;19932;-73
2024/04/15 10:50:14;;;;;;;;;;;;;;;7.61;33.52;94658.19;5391202;26;20390;-73
2024/04/15 10:52:40;;;;;;;;;;;;;;;7.73;35.19;94645.31;5393537;26;19933;-74
2024/04/15 10:55:05;;;;;;;;;;;;;;;7.58;33.73;94645.31;5393702;26;20179;-73
2024/04/15 10:57:30;;;;;;;;;;;;;;;7.15;36.03;94644.09;5382886;26;19937;-73
2024/04/15 10:59:56;;;;;;;;;;;;;;;7.55;35.67;94621.81;5382456;26;19936;-74
2024/04/15 11:02:21;;;;;;;;;;;;;;;7.84;35.45;94622.84;5386649;26;20366;-73
2024/04/15 11:04:50;;;;;;;;;;;;;;;9.11;33.24;94605.69;5392525;26;19933;-73
2024/04/15 11:07:18;;;;;;;;;;;;;;;8.62;33.54;94604.69;5391928;26;19936;-74
2024/04/15 11:09:44;;;;;;;;;;;;;;;9.10;31.62;94603.25;5393846;26;19961;-74
2024/04/15 11:12:09;;;;;;;;;;;;;;;9.16;32.54;94584.72;5393348;26;20380;-77
2024/04/15 11:14:34;;;;;;;;;;;;;;;8.95;33.05;94586.41;5393863;26;19932;-75
2024/04/15 11:17:02;;;;;;;;;;;;;;;9.69;29.99;94577.25;5389953;26;20249;-74
2024/04/15 11:19:28;;;;;;;;;;;;;;;9.59;29.81;94578.41;5395830;26;19928;-76
2024/04/15 11:22:03;;;;;;;;;;;;;;;9.15;30.53;94580.41;5381325;26;19933;-76
2024/04/15 11:24:28;;;;;;;;;;;;;;;9.97;29.93;94584.28;5392406;26;20413;-78
2024/04/15 11:26:53;;;;;;;;;;;;;;;9.79;30.29;94566.22;5386416;26;20160;-75
2024/04/15 11:29:19;;;;;;;;;;;;;;;10.02;32.12;94571.19;5393355;26;19933;-76
2024/04/15 11:31:44;;;;;;;;;;;;;;;9.59;30.45;94562.47;5357937;26;20003;-76
2024/04/15 11:34:10;;;;;;;;;;;;;;;10.17;30.79;94547.13;5393290;26;20323;-76
2024/04/15 11:36:37;;;;;;;;;;;;;;;9.63;30.14;94554.94;5385078;26;20161;-74
2024/04/15 11:39:02;;;;;;;;;;;;;;;10.36;27.73;94547.38;5384637;26;19929;-75
2024/04/15 11:41:27;;;;;;;;;;;;;;;9.78;28.49;94543.31;5391253;26;20369;-75
2024/04/15 11:43:52;;;;;;;;;;;;;;;9.44;29.70;94557.28;5393780;26;19929;-75
2024/04/15 11:46:18;;;;;;;;;;;;;;;9.62;27.92;94542.63;5394137;26;19935;-75
2024/04/15 11:48:43;;;;;;;;;;;;;;;8.98;29.98;94542.75;5392259;26;19937;-76
2024/04/15 11:51:08;;;;;;;;;;;;;;;8.36;31.04;94529.19;5387478;26;20354;-77
2024/04/15 11:53:35;;;;;;;;;;;;;;;8.70;31.65;94522.28;5389640;26;19929;-75
2024/04/15 11:56:00;;;;;;;;;;;;;;;8.28;30.57;94522.16;5388258;26;20362;-78
2024/04/15 11:58:25;;;;;;;;;;;;;;;7.27;32.45;94520.03;5384478;26;20023;-77
2024/04/15 12:00:51;;;;;;;;;;;;;;;7.09;31.94;94523.06;5387202;26;20002;-75
2024/04/15 12:03:16;;;;;;;;;;;;;;;7.02;32.49;94493.88;5387533;26;20321;-75
2024/04/15 12:05:41;;;;;;;;;;;;;;;8.17;30.09;94483.72;5391860;26;19990;-76
2024/04/15 12:08:07;;;;;;;;;;;;;;;8.53;29.96;94476.66;5390794;26;19999;-77
2024/04/15 12:10:34;;;;;;;;;;;;;;;8.52;29.60;94467.88;5393306;26;19936;-74
2024/04/15 12:12:59;;;;;;;;;;;;;;;7.79;30.53;94453.81;5392797;26;19965;-74
2024/04/15 12:15:25;;;;;;;;;;;;;;;8.90;29.52;94452.59;5394461;26;19936;-76
2024/04/15 12:17:50;;;;;;;;;;;;;;;7.78;29.70;94462.78;5389965;26;20430;-77
2024/04/15 12:20:16;;;;;;;;;;;;;;;8.98;28.11;94468.41;5386568;26;19937;-74
2024/04/15 12:22:42;;;;;;;;;;;;;;;8.37;28.11;94454.69;5385484;26;19933;-73
2024/04/15 12:25:08;;;;;;;;;;;;;;;8.69;28.51;94436.56;5390135;26;19956;-72
2024/04/15 12:27:33;;;;;;;;;;;;;;;8.96;28.85;94425.31;5389775;26;20076;-75
2024/04/15 12:29:58;;;;;;;;;;;;;;;9.25;28.11;94420.72;5391557;26;19933;-74
2024/04/15 12:32:24;;;;;;;;;;;;;;;8.45;28.31;94408.66;5391953;26;19933;-73
2024/04/15 12:34:49;;;;;;;;;;;;;;;9.19;26.97;94430.28;5382272;26;20002;-74
2024/04/15 12:37:14;;;;;;;;;;;;;;;9.62;27.47;94407.13;5387081;26;20362;-74
2024/04/15 12:39:40;;;;;;;;;;;;;;;9.52;27.17;94420.78;5392789;26;20386;-75
2024/04/15 12:42:05;;;;;;;;;;;;;;;8.93;27.49;94423.00;5391183;26;19928;-72
2024/04/15 12:44:31;;;;;;;;;;;;;;;9.36;28.47;94392.78;5392945;26;20382;-74
2024/04/15 12:46:58;;;;;;;;;;;;;;;7.90;28.44;94394.22;5389216;26;20411;-73